sensor_id;sensor_type;location;lat;lon;timestamp;P1;durP1;ratioP1;P2;durP2;ratioP2
51515;SDS011;37603;55.614;37.326;2023-06-19T00:03:21;6.6;;;3.0;;
51515;SDS011;37603;55.614;37.326;2023-06-19T00:09:21;6.0;;;3.1;;
51515;SDS011;37603;55.614;37.326;2023-06-19T00:15:20;10.2;;;3.6;;
51515;SDS011;37603;55.614;37.326;2023-06-19T00:21:20;8.1;;;3.5;;
51515;SDS011;37603;55.614;37.326;2023-06-19T00:27:19;7.2;;;3.3;;
51515;SDS011;37603;55.614;37.326;2023-06-19T00:33:18;6.5;;;3.2;;
51515;SDS011;37603;55.614;37.326;2023-06-19T00:39:18;5.7;;;3.2;;
51515;SDS011;37603;55.614;37.326;2023-06-19T00:45:17;6.7;;;3.8;;
51515;SDS011;37603;55.614;37.326;2023-06-19T00:51:17;8.3;;;3.2;;
51515;SDS011;37603;55.614;37.326;2023-06-19T00:57:16;8.4;;;3.8;;
51515;SDS011;37603;55.614;37.326;2023-06-19T01:03:16;6.0;;;3.3;;
51515;SDS011;37603;55.614;37.326;2023-06-19T01:09:15;7.3;;;3.5;;
51515;SDS011;37603;55.614;37.326;2023-06-19T01:15:14;7.8;;;3.6;;
51515;SDS011;37603;55.614;37.326;2023-06-19T01:21:14;9.8;;;4.2;;
51515;SDS011;37603;55.614;37.326;2023-06-19T01:27:13;5.0;;;3.4;;
51515;SDS011;37603;55.614;37.326;2023-06-19T01:33:14;7.8;;;3.7;;
51515;SDS011;37603;55.614;37.326;2023-06-19T01:39:12;6.5;;;3.7;;
51515;SDS011;37603;55.614;37.326;2023-06-19T01:45:11;5.8;;;3.4;;
51515;SDS011;37603;55.614;37.326;2023-06-19T01:51:11;9.1;;;3.5;;
51515;SDS011;37603;55.614;37.326;2023-06-19T01:57:10;5.5;;;3.4;;
51515;SDS011;37603;55.614;37.326;2023-06-19T02:03:09;6.0;;;3.6;;
51515;SDS011;37603;55.614;37.326;2023-06-19T02:09:09;6.2;;;3.3;;
51515;SDS011;37603;55.614;37.326;2023-06-19T02:15:09;5.5;;;3.2;;
51515;SDS011;37603;55.614;37.326;2023-06-19T02:21:08;5.7;;;3.4;;
51515;SDS011;37603;55.614;37.326;2023-06-19T02:27:07;6.5;;;3.2;;
51515;SDS011;37603;55.614;37.326;2023-06-19T02:33:06;7.6;;;3.4;;
51515;SDS011;37603;55.614;37.326;2023-06-19T02:39:06;5.4;;;2.8;;
51515;SDS011;37603;55.614;37.326;2023-06-19T02:45:06;5.2;;;3.0;;
51515;SDS011;37603;55.614;37.326;2023-06-19T02:51:05;4.8;;;2.7;;
51515;SDS011;37603;55.614;37.326;2023-06-19T02:57:04;9.0;;;2.7;;
51515;SDS011;37603;55.614;37.326;2023-06-19T03:03:03;5.6;;;2.7;;
51515;SDS011;37603;55.614;37.326;2023-06-19T03:09:03;5.4;;;2.7;;
51515;SDS011;37603;55.614;37.326;2023-06-19T03:15:02;3.8;;;2.3;;
51515;SDS011;37603;55.614;37.326;2023-06-19T03:21:02;6.0;;;2.5;;
51515;SDS011;37603;55.614;37.326;2023-06-19T03:27:01;8.1;;;2.7;;
51515;SDS011;37603;55.614;37.326;2023-06-19T03:33:00;6.8;;;2.5;;
51515;SDS011;37603;55.614;37.326;2023-06-19T03:39:00;4.0;;;2.3;;
51515;SDS011;37603;55.614;37.326;2023-06-19T03:44:59;7.2;;;2.6;;
51515;SDS011;37603;55.614;37.326;2023-06-19T03:50:59;4.6;;;2.3;;
51515;SDS011;37603;55.614;37.326;2023-06-19T03:56:58;7.6;;;2.9;;
51515;SDS011;37603;55.614;37.326;2023-06-19T04:02:58;5.9;;;2.4;;
51515;SDS011;37603;55.614;37.326;2023-06-19T04:08:57;7.4;;;2.3;;
51515;SDS011;37603;55.614;37.326;2023-06-19T04:14:57;10.2;;;2.8;;
51515;SDS011;37603;55.614;37.326;2023-06-19T04:20:56;4.9;;;2.2;;
51515;SDS011;37603;55.614;37.326;2023-06-19T04:26:56;5.6;;;2.0;;
51515;SDS011;37603;55.614;37.326;2023-06-19T04:32:55;3.5;;;2.1;;
51515;SDS011;37603;55.614;37.326;2023-06-19T04:38:55;6.5;;;2.8;;
51515;SDS011;37603;55.614;37.326;2023-06-19T04:44:55;5.0;;;2.4;;
51515;SDS011;37603;55.614;37.326;2023-06-19T04:50:54;3.1;;;1.9;;
51515;SDS011;37603;55.614;37.326;2023-06-19T04:56:54;4.8;;;2.4;;
51515;SDS011;37603;55.614;37.326;2023-06-19T05:02:53;5.4;;;2.0;;
51515;SDS011;37603;55.614;37.326;2023-06-19T05:08:53;7.0;;;2.0;;
51515;SDS011;37603;55.614;37.326;2023-06-19T05:14:53;4.1;;;1.8;;
51515;SDS011;37603;55.614;37.326;2023-06-19T05:20:52;5.5;;;2.0;;
51515;SDS011;37603;55.614;37.326;2023-06-19T05:26:52;3.6;;;2.1;;
51515;SDS011;37603;55.614;37.326;2023-06-19T05:32:52;4.1;;;1.7;;
51515;SDS011;37603;55.614;37.326;2023-06-19T05:38:52;4.0;;;1.8;;
51515;SDS011;37603;55.614;37.326;2023-06-19T05:44:52;5.3;;;2.0;;
51515;SDS011;37603;55.614;37.326;2023-06-19T05:50:51;4.5;;;2.1;;
51515;SDS011;37603;55.614;37.326;2023-06-19T06:02:51;5.1;;;1.9;;
51515;SDS011;37603;55.614;37.326;2023-06-19T06:14:51;4.1;;;1.9;;
51515;SDS011;37603;55.614;37.326;2023-06-19T06:20:51;4.3;;;1.9;;
51515;SDS011;37603;55.614;37.326;2023-06-19T06:26:51;4.4;;;1.9;;
51515;SDS011;37603;55.614;37.326;2023-06-19T06:32:51;5.2;;;1.9;;
51515;SDS011;37603;55.614;37.326;2023-06-19T06:38:51;6.7;;;2.1;;
51515;SDS011;37603;55.614;37.326;2023-06-19T06:44:51;3.5;;;2.2;;
51515;SDS011;37603;55.614;37.326;2023-06-19T06:56:50;4.8;;;2.1;;
51515;SDS011;37603;55.614;37.326;2023-06-19T07:02:50;8.9;;;2.3;;
51515;SDS011;37603;55.614;37.326;2023-06-19T07:08:50;6.5;;;2.4;;
51515;SDS011;37603;55.614;37.326;2023-06-19T07:20:51;6.2;;;2.3;;
51515;SDS011;37603;55.614;37.326;2023-06-19T07:26:50;5.8;;;2.2;;
51515;SDS011;37603;55.614;37.326;2023-06-19T07:32:50;4.8;;;2.2;;
51515;SDS011;37603;55.614;37.326;2023-06-19T07:38:51;3.9;;;2.2;;
51515;SDS011;37603;55.614;37.326;2023-06-19T07:44:50;5.4;;;2.5;;
51515;SDS011;37603;55.614;37.326;2023-06-19T07:50:50;5.0;;;2.4;;
51515;SDS011;37603;55.614;37.326;2023-06-19T07:56:50;3.8;;;2.2;;
51515;SDS011;37603;55.614;37.326;2023-06-19T08:08:50;6.1;;;2.2;;
51515;SDS011;37603;55.614;37.326;2023-06-19T08:14:50;4.7;;;2.2;;
51515;SDS011;37603;55.614;37.326;2023-06-19T08:20:50;5.7;;;2.1;;
51515;SDS011;37603;55.614;37.326;2023-06-19T08:26:51;3.4;;;2.1;;
51515;SDS011;37603;55.614;37.326;2023-06-19T08:32:51;3.6;;;1.9;;
51515;SDS011;37603;55.614;37.326;2023-06-19T08:38:51;8.3;;;2.2;;
51515;SDS011;37603;55.614;37.326;2023-06-19T08:44:51;6.0;;;2.3;;
51515;SDS011;37603;55.614;37.326;2023-06-19T08:50:51;5.6;;;2.1;;
51515;SDS011;37603;55.614;37.326;2023-06-19T08:56:51;5.5;;;2.2;;
51515;SDS011;37603;55.614;37.326;2023-06-19T09:02:51;5.0;;;2.4;;
51515;SDS011;37603;55.614;37.326;2023-06-19T09:08:57;6.3;;;2.5;;
51515;SDS011;37603;55.614;37.326;2023-06-19T09:14:51;4.3;;;2.2;;
51515;SDS011;37603;55.614;37.326;2023-06-19T09:20:52;5.0;;;2.4;;
51515;SDS011;37603;55.614;37.326;2023-06-19T09:32:51;5.1;;;2.6;;
51515;SDS011;37603;55.614;37.326;2023-06-19T09:38:51;8.6;;;2.4;;
51515;SDS011;37603;55.614;37.326;2023-06-19T09:44:51;5.8;;;2.5;;
51515;SDS011;37603;55.614;37.326;2023-06-19T09:50:51;4.4;;;2.4;;
51515;SDS011;37603;55.614;37.326;2023-06-19T09:56:51;5.4;;;2.0;;
51515;SDS011;37603;55.614;37.326;2023-06-19T10:02:50;5.0;;;2.1;;
51515;SDS011;37603;55.614;37.326;2023-06-19T10:08:50;6.6;;;2.3;;
51515;SDS011;37603;55.614;37.326;2023-06-19T10:20:50;4.0;;;2.2;;
51515;SDS011;37603;55.614;37.326;2023-06-19T10:26:58;5.1;;;2.0;;
51515;SDS011;37603;55.614;37.326;2023-06-19T10:32:51;5.9;;;2.3;;
51515;SDS011;37603;55.614;37.326;2023-06-19T10:38:50;5.5;;;2.2;;
51515;SDS011;37603;55.614;37.326;2023-06-19T10:44:50;5.4;;;2.3;;
51515;SDS011;37603;55.614;37.326;2023-06-19T10:50:50;4.9;;;1.9;;
51515;SDS011;37603;55.614;37.326;2023-06-19T10:56:51;3.3;;;1.9;;
51515;SDS011;37603;55.614;37.326;2023-06-19T11:02:50;3.0;;;2.2;;
51515;SDS011;37603;55.614;37.326;2023-06-19T11:08:50;4.6;;;2.3;;
51515;SDS011;37603;55.614;37.326;2023-06-19T11:14:50;4.4;;;2.1;;
51515;SDS011;37603;55.614;37.326;2023-06-19T11:20:51;4.8;;;2.3;;
51515;SDS011;37603;55.614;37.326;2023-06-19T11:26:50;3.7;;;2.0;;
51515;SDS011;37603;55.614;37.326;2023-06-19T11:32:50;3.5;;;2.2;;
51515;SDS011;37603;55.614;37.326;2023-06-19T11:38:50;3.6;;;2.3;;
51515;SDS011;37603;55.614;37.326;2023-06-19T11:44:52;4.0;;;2.2;;
51515;SDS011;37603;55.614;37.326;2023-06-19T11:50:50;4.4;;;2.4;;
51515;SDS011;37603;55.614;37.326;2023-06-19T12:02:50;3.5;;;2.3;;
51515;SDS011;37603;55.614;37.326;2023-06-19T12:08:50;4.9;;;2.2;;
51515;SDS011;37603;55.614;37.326;2023-06-19T12:20:50;5.2;;;2.1;;
51515;SDS011;37603;55.614;37.326;2023-06-19T12:26:50;3.9;;;2.2;;
51515;SDS011;37603;55.614;37.326;2023-06-19T12:38:51;6.0;;;2.4;;
51515;SDS011;37603;55.614;37.326;2023-06-19T12:44:50;3.1;;;1.9;;
51515;SDS011;37603;55.614;37.326;2023-06-19T12:50:49;3.4;;;2.0;;
51515;SDS011;37603;55.614;37.326;2023-06-19T12:56:50;3.7;;;2.1;;
51515;SDS011;37603;55.614;37.326;2023-06-19T13:02:50;4.0;;;1.9;;
51515;SDS011;37603;55.614;37.326;2023-06-19T13:08:50;3.5;;;2.0;;
51515;SDS011;37603;55.614;37.326;2023-06-19T13:14:50;4.7;;;2.0;;
51515;SDS011;37603;55.614;37.326;2023-06-19T13:32:49;4.0;;;2.3;;
51515;SDS011;37603;55.614;37.326;2023-06-19T13:50:49;3.1;;;1.9;;
51515;SDS011;37603;55.614;37.326;2023-06-19T13:56:49;5.0;;;2.1;;
51515;SDS011;37603;55.614;37.326;2023-06-19T14:02:49;4.5;;;2.2;;
51515;SDS011;37603;55.614;37.326;2023-06-19T14:14:49;5.0;;;2.1;;
51515;SDS011;37603;55.614;37.326;2023-06-19T14:20:49;4.4;;;2.1;;
51515;SDS011;37603;55.614;37.326;2023-06-19T14:26:49;4.5;;;2.2;;
51515;SDS011;37603;55.614;37.326;2023-06-19T14:32:49;3.5;;;2.1;;
51515;SDS011;37603;55.614;37.326;2023-06-19T14:38:49;3.7;;;2.2;;
51515;SDS011;37603;55.614;37.326;2023-06-19T14:44:50;4.1;;;2.0;;
51515;SDS011;37603;55.614;37.326;2023-06-19T14:50:49;4.3;;;2.2;;
51515;SDS011;37603;55.614;37.326;2023-06-19T14:56:49;4.1;;;1.9;;
51515;SDS011;37603;55.614;37.326;2023-06-19T15:02:49;3.3;;;1.8;;
51515;SDS011;37603;55.614;37.326;2023-06-19T15:08:49;4.3;;;2.3;;
51515;SDS011;37603;55.614;37.326;2023-06-19T15:14:49;6.7;;;2.1;;
51515;SDS011;37603;55.614;37.326;2023-06-19T15:20:49;4.4;;;2.5;;
51515;SDS011;37603;55.614;37.326;2023-06-19T15:26:49;2.8;;;1.9;;
51515;SDS011;37603;55.614;37.326;2023-06-19T15:32:49;5.3;;;2.2;;
51515;SDS011;37603;55.614;37.326;2023-06-19T15:38:49;3.3;;;2.0;;
51515;SDS011;37603;55.614;37.326;2023-06-19T15:44:49;4.0;;;2.2;;
51515;SDS011;37603;55.614;37.326;2023-06-19T15:50:49;4.1;;;2.2;;
51515;SDS011;37603;55.614;37.326;2023-06-19T15:56:49;4.0;;;2.1;;
51515;SDS011;37603;55.614;37.326;2023-06-19T16:02:48;4.1;;;2.1;;
51515;SDS011;37603;55.614;37.326;2023-06-19T16:08:49;5.2;;;2.2;;
51515;SDS011;37603;55.614;37.326;2023-06-19T16:14:48;4.4;;;2.1;;
51515;SDS011;37603;55.614;37.326;2023-06-19T16:20:48;5.7;;;2.1;;
51515;SDS011;37603;55.614;37.326;2023-06-19T16:26:48;5.2;;;1.9;;
51515;SDS011;37603;55.614;37.326;2023-06-19T16:32:48;3.1;;;2.1;;
51515;SDS011;37603;55.614;37.326;2023-06-19T16:38:48;4.3;;;2.4;;
51515;SDS011;37603;55.614;37.326;2023-06-19T16:50:48;5.6;;;2.1;;
51515;SDS011;37603;55.614;37.326;2023-06-19T16:56:48;3.3;;;1.8;;
51515;SDS011;37603;55.614;37.326;2023-06-19T17:02:48;4.0;;;2.5;;
51515;SDS011;37603;55.614;37.326;2023-06-19T17:08:48;4.6;;;2.5;;
51515;SDS011;37603;55.614;37.326;2023-06-19T17:14:47;4.3;;;2.1;;
51515;SDS011;37603;55.614;37.326;2023-06-19T17:26:47;4.9;;;2.4;;
51515;SDS011;37603;55.614;37.326;2023-06-19T17:32:47;5.5;;;2.3;;
51515;SDS011;37603;55.614;37.326;2023-06-19T17:38:46;4.8;;;2.4;;
51515;SDS011;37603;55.614;37.326;2023-06-19T17:44:46;4.4;;;2.3;;
51515;SDS011;37603;55.614;37.326;2023-06-19T17:50:46;5.7;;;2.3;;
51515;SDS011;37603;55.614;37.326;2023-06-19T17:56:46;3.1;;;2.4;;
51515;SDS011;37603;55.614;37.326;2023-06-19T18:02:46;4.8;;;2.5;;
51515;SDS011;37603;55.614;37.326;2023-06-19T18:08:45;3.5;;;2.4;;
51515;SDS011;37603;55.614;37.326;2023-06-19T18:14:45;6.8;;;2.6;;
51515;SDS011;37603;55.614;37.326;2023-06-19T18:20:45;5.3;;;2.4;;
51515;SDS011;37603;55.614;37.326;2023-06-19T18:38:44;4.3;;;2.5;;
51515;SDS011;37603;55.614;37.326;2023-06-19T18:44:43;6.8;;;3.1;;
51515;SDS011;37603;55.614;37.326;2023-06-19T18:50:43;5.5;;;2.7;;
51515;SDS011;37603;55.614;37.326;2023-06-19T18:56:42;6.3;;;2.7;;
51515;SDS011;37603;55.614;37.326;2023-06-19T19:02:42;4.9;;;2.8;;
51515;SDS011;37603;55.614;37.326;2023-06-19T19:08:42;4.3;;;2.5;;
51515;SDS011;37603;55.614;37.326;2023-06-19T19:14:41;6.8;;;2.8;;
51515;SDS011;37603;55.614;37.326;2023-06-19T19:20:41;5.6;;;2.7;;
51515;SDS011;37603;55.614;37.326;2023-06-19T19:26:41;7.2;;;3.1;;
51515;SDS011;37603;55.614;37.326;2023-06-19T19:32:40;8.3;;;3.4;;
51515;SDS011;37603;55.614;37.326;2023-06-19T19:38:40;6.4;;;2.9;;
51515;SDS011;37603;55.614;37.326;2023-06-19T19:44:39;5.2;;;2.8;;
51515;SDS011;37603;55.614;37.326;2023-06-19T19:50:39;7.3;;;3.2;;
51515;SDS011;37603;55.614;37.326;2023-06-19T19:56:38;9.8;;;3.4;;
51515;SDS011;37603;55.614;37.326;2023-06-19T20:08:38;5.8;;;3.2;;
51515;SDS011;37603;55.614;37.326;2023-06-19T20:14:37;7.6;;;3.6;;
51515;SDS011;37603;55.614;37.326;2023-06-19T20:20:36;10.1;;;4.4;;
51515;SDS011;37603;55.614;37.326;2023-06-19T20:32:36;8.9;;;4.2;;
51515;SDS011;37603;55.614;37.326;2023-06-19T20:38:35;10.4;;;3.8;;
51515;SDS011;37603;55.614;37.326;2023-06-19T20:44:35;7.2;;;3.2;;
51515;SDS011;37603;55.614;37.326;2023-06-19T20:50:34;7.6;;;3.5;;
51515;SDS011;37603;55.614;37.326;2023-06-19T20:56:34;6.6;;;3.4;;
51515;SDS011;37603;55.614;37.326;2023-06-19T21:02:33;10.8;;;3.6;;
51515;SDS011;37603;55.614;37.326;2023-06-19T21:08:33;7.4;;;3.6;;
51515;SDS011;37603;55.614;37.326;2023-06-19T21:14:32;13.9;;;4.4;;
51515;SDS011;37603;55.614;37.326;2023-06-19T21:20:32;10.5;;;4.3;;
51515;SDS011;37603;55.614;37.326;2023-06-19T21:26:32;15.0;;;4.5;;
51515;SDS011;37603;55.614;37.326;2023-06-19T21:32:30;11.4;;;4.7;;
51515;SDS011;37603;55.614;37.326;2023-06-19T21:38:30;9.5;;;4.4;;
51515;SDS011;37603;55.614;37.326;2023-06-19T21:44:29;13.0;;;5.0;;
51515;SDS011;37603;55.614;37.326;2023-06-19T21:50:29;10.8;;;4.5;;
51515;SDS011;37603;55.614;37.326;2023-06-19T21:56:28;11.5;;;4.8;;
51515;SDS011;37603;55.614;37.326;2023-06-19T22:02:28;12.0;;;4.4;;
51515;SDS011;37603;55.614;37.326;2023-06-19T22:08:27;12.7;;;5.1;;
51515;SDS011;37603;55.614;37.326;2023-06-19T22:14:27;13.0;;;6.1;;
51515;SDS011;37603;55.614;37.326;2023-06-19T22:20:26;10.0;;;5.1;;
51515;SDS011;37603;55.614;37.326;2023-06-19T22:26:26;11.2;;;5.3;;
51515;SDS011;37603;55.614;37.326;2023-06-19T22:32:25;13.0;;;5.1;;
51515;SDS011;37603;55.614;37.326;2023-06-19T22:38:24;9.6;;;5.1;;
51515;SDS011;37603;55.614;37.326;2023-06-19T22:44:24;14.0;;;5.6;;
51515;SDS011;37603;55.614;37.326;2023-06-19T22:50:23;15.5;;;6.1;;
51515;SDS011;37603;55.614;37.326;2023-06-19T22:56:22;12.9;;;5.8;;
51515;SDS011;37603;55.614;37.326;2023-06-19T23:02:22;10.1;;;5.4;;
51515;SDS011;37603;55.614;37.326;2023-06-19T23:08:21;12.8;;;5.6;;
51515;SDS011;37603;55.614;37.326;2023-06-19T23:14:20;13.4;;;5.5;;
51515;SDS011;37603;55.614;37.326;2023-06-19T23:20:20;14.5;;;5.4;;
51515;SDS011;37603;55.614;37.326;2023-06-19T23:26:19;11.4;;;5.5;;
51515;SDS011;37603;55.614;37.326;2023-06-19T23:32:18;13.3;;;6.0;;
51515;SDS011;37603;55.614;37.326;2023-06-19T23:38:18;12.5;;;6.1;;
51515;SDS011;37603;55.614;37.326;2023-06-19T23:44:17;12.1;;;6.1;;
51515;SDS011;37603;55.614;37.326;2023-06-19T23:56:17;12.2;;;6.1;;
